createdAt,value
2022-09-28T00:02:00.694Z,1.38
2022-09-28T00:07:47.797Z,0.60
2022-09-28T00:13:35.314Z,1.40
2022-09-28T00:19:25.765Z,1.10
2022-09-28T00:25:14.947Z,1.35
2022-09-28T00:31:02.192Z,1.30
2022-09-28T00:36:49.328Z,1.10
2022-09-28T00:42:38.070Z,0.90
2022-09-28T00:48:29.403Z,0.90
2022-09-28T00:54:17.160Z,1.35
2022-09-28T01:00:05.833Z,1.25
2022-09-28T01:05:54.038Z,1.17
2022-09-28T01:11:42.378Z,1.00
2022-09-28T01:17:44.863Z,0.95
2022-09-28T01:23:57.136Z,1.37
2022-09-28T01:29:50.088Z,1.30
2022-09-28T01:35:45.814Z,1.40
2022-09-28T01:41:36.728Z,1.13
2022-09-28T01:47:26.408Z,1.03
2022-09-28T01:53:24.131Z,1.10
2022-09-28T01:59:20.404Z,1.38
2022-09-28T02:05:12.124Z,1.30
2022-09-28T02:11:06.056Z,1.47
2022-09-28T02:16:54.770Z,1.33
2022-09-28T02:22:53.141Z,0.93
2022-09-28T02:28:40.133Z,1.90
2022-09-28T02:34:27.256Z,1.50
2022-09-28T02:40:23.472Z,1.20
2022-09-28T02:46:36.943Z,1.33
2022-09-28T02:53:02.813Z,1.63
2022-09-28T02:59:15.005Z,0.80
2022-09-28T03:05:10.957Z,0.93
2022-09-28T03:11:19.426Z,0.93
2022-09-28T03:17:09.662Z,1.60
2022-09-28T03:23:22.682Z,1.60
2022-09-28T03:29:04.573Z,1.10
2022-09-28T03:34:51.927Z,1.05
2022-09-28T03:40:38.874Z,1.08
2022-09-28T03:46:28.962Z,1.55
2022-09-28T03:52:20.673Z,0.77
2022-09-28T03:58:07.377Z,1.40
2022-09-28T04:03:57.939Z,1.02
2022-09-28T04:09:45.324Z,1.17
2022-09-28T04:15:33.167Z,1.38
2022-09-28T04:21:20.807Z,1.13
2022-09-28T04:27:32.174Z,1.80
2022-09-28T04:33:23.142Z,1.27
2022-09-28T04:39:14.445Z,2.17
2022-09-28T04:45:04.902Z,1.17
2022-09-28T04:50:56.811Z,1.60
2022-09-28T04:56:43.691Z,1.10
2022-09-28T05:02:30.699Z,1.15
2022-09-28T05:08:23.596Z,1.60
2022-09-28T05:14:21.687Z,1.20
2022-09-28T05:20:09.192Z,1.33
2022-09-28T05:25:56.131Z,1.65
2022-09-28T05:31:48.439Z,1.00
2022-09-28T05:37:53.164Z,1.10
2022-09-28T05:43:41.176Z,1.38
2022-09-28T05:49:29.245Z,1.50
2022-09-28T05:55:23.702Z,1.30
2022-09-28T06:01:10.481Z,2.40
2022-09-28T06:06:57.853Z,1.45
2022-09-28T06:12:50.001Z,2.08
2022-09-28T06:19:11.757Z,1.95
2022-09-28T06:25:43.361Z,1.95
2022-09-28T06:31:32.753Z,1.67
2022-09-28T06:37:19.675Z,1.50
2022-09-28T06:43:10.698Z,1.92
2022-09-28T06:57:10.499Z,1.73
2022-09-28T07:02:57.936Z,1.60
2022-09-28T07:09:31.568Z,2.00
2022-09-28T07:15:40.280Z,1.45
2022-09-28T07:21:31.198Z,2.28
2022-09-28T07:27:28.739Z,2.00
2022-09-28T07:33:34.574Z,1.23
2022-09-28T07:47:02.859Z,2.20
2022-09-28T07:53:17.533Z,1.42
2022-09-28T07:59:17.727Z,1.92
2022-09-28T08:05:36.778Z,2.58
2022-09-28T08:11:23.768Z,1.77
2022-09-28T08:17:29.369Z,1.58
2022-09-28T08:23:20.700Z,1.75
2022-09-28T08:29:08.302Z,1.48
2022-09-28T08:35:30.199Z,1.70
2022-09-28T08:41:55.741Z,1.63
2022-09-28T08:55:20.055Z,1.95
2022-09-28T09:01:22.392Z,2.03
2022-09-28T09:14:26.394Z,1.88
2022-09-28T09:20:53.063Z,1.77
2022-09-28T09:28:04.353Z,1.50
2022-09-28T09:34:14.051Z,1.80
2022-09-28T09:41:03.179Z,1.92
2022-09-28T10:53:46.758Z,0.73
2022-09-28T10:59:42.693Z,0.30
2022-09-28T11:18:53.889Z,0.40
2022-09-28T11:24:57.897Z,0.40
2022-09-28T11:30:51.622Z,0.40
2022-09-28T11:36:47.947Z,0.40
2022-09-28T11:43:10.072Z,0.50
2022-09-28T11:49:07.192Z,0.35
2022-09-28T11:55:18.958Z,0.85
2022-09-28T12:01:19.071Z,0.75
2022-09-28T12:07:57.123Z,0.65
2022-09-28T12:14:21.851Z,0.55
2022-09-28T12:20:25.944Z,0.50
2022-09-28T12:26:28.340Z,0.75
2022-09-28T12:32:26.137Z,0.38
2022-09-28T13:28:01.317Z,0.70
2022-09-28T13:33:50.409Z,0.45
2022-09-28T13:39:44.234Z,0.50
2022-09-28T13:45:54.461Z,0.80
2022-09-28T13:52:26.452Z,0.80
2022-09-28T13:58:35.841Z,0.35
2022-09-28T14:04:59.281Z,0.32
2022-09-28T14:11:02.439Z,0.52
2022-09-28T14:16:58.951Z,0.45
2022-09-28T14:23:13.755Z,0.50
2022-09-28T14:29:27.869Z,0.65
2022-09-28T14:35:39.145Z,0.60
2022-09-28T14:41:45.261Z,0.45
2022-09-28T14:48:09.071Z,0.50
2022-09-28T14:54:11.626Z,0.47
2022-09-28T14:59:59.796Z,0.60
2022-09-28T15:05:57.369Z,0.40
2022-09-28T15:11:44.716Z,0.70
2022-09-28T15:18:17.009Z,0.68
2022-09-28T15:24:52.573Z,0.53
2022-09-28T15:57:36.117Z,0.70
2022-09-28T16:03:28.824Z,0.57
2022-09-28T16:09:31.769Z,0.60
2022-09-28T16:15:32.653Z,0.73
2022-09-28T16:21:47.070Z,0.43
2022-09-28T16:27:43.384Z,0.40
2022-09-28T16:33:43.796Z,0.40
2022-09-28T16:39:30.723Z,0.50
2022-09-28T16:45:20.577Z,0.65
2022-09-28T16:51:25.790Z,1.30
2022-09-28T16:57:17.092Z,0.73
2022-09-28T17:03:13.455Z,0.85
2022-09-28T17:09:27.484Z,0.70
2022-09-28T17:15:16.551Z,0.98
2022-09-28T17:21:06.198Z,0.55
2022-09-28T17:26:57.432Z,3.47
2022-09-28T17:32:47.644Z,0.90
2022-09-28T17:38:49.334Z,0.77
2022-09-28T17:44:36.459Z,0.50
2022-09-28T17:50:29.732Z,0.90
2022-09-28T17:56:16.537Z,1.08
2022-09-28T18:02:03.526Z,1.17
2022-09-28T18:07:51.946Z,1.83
2022-09-28T18:13:39.288Z,1.70
2022-09-28T18:19:32.024Z,2.17
2022-09-28T18:25:24.336Z,5.45
2022-09-28T18:37:07.063Z,3.33
2022-09-28T18:42:53.843Z,3.25
2022-09-28T18:48:41.172Z,2.33
2022-09-28T18:54:28.099Z,2.25
2022-09-28T19:00:15.279Z,3.00
2022-09-28T19:06:02.502Z,2.95
2022-09-28T19:11:50.121Z,2.10
2022-09-28T19:17:37.138Z,2.13
2022-09-28T19:23:26.727Z,1.65
2022-09-28T19:29:14.781Z,2.25
2022-09-28T19:35:03.446Z,2.60
2022-09-28T19:40:50.296Z,2.70
2022-09-28T19:46:40.839Z,2.83
2022-09-28T19:52:29.578Z,2.58
2022-09-28T19:58:16.412Z,2.55
2022-09-28T20:04:03.517Z,2.55
2022-09-28T20:09:51.681Z,2.63
2022-09-28T20:15:38.689Z,2.45
2022-09-28T20:21:28.917Z,1.95
2022-09-28T20:27:29.677Z,2.08
2022-09-28T20:33:28.797Z,2.78
2022-09-28T20:39:19.122Z,11.63
2022-09-28T20:45:06.235Z,7.38
2022-09-28T20:51:13.958Z,2.67
2022-09-28T20:57:03.676Z,2.10
2022-09-28T21:02:54.733Z,2.45
2022-09-28T21:08:46.231Z,2.78
2022-09-28T21:14:33.277Z,2.75
2022-09-28T21:20:27.694Z,2.88
2022-09-28T21:26:27.724Z,3.08
2022-09-28T21:32:14.656Z,3.72
2022-09-28T21:38:03.534Z,3.33
2022-09-28T21:43:52.466Z,2.83
2022-09-28T21:49:39.132Z,3.20
2022-09-28T21:55:25.883Z,2.63
2022-09-28T22:01:16.602Z,2.63
2022-09-28T22:07:03.539Z,2.60
2022-09-28T22:12:51.814Z,3.50
2022-09-28T22:18:42.721Z,2.97
2022-09-28T22:24:29.873Z,2.20
2022-09-28T22:30:20.280Z,2.85
2022-09-28T22:36:07.957Z,3.10
2022-09-28T22:41:54.859Z,2.60
2022-09-28T22:47:43.936Z,3.05
2022-09-28T22:53:31.251Z,3.38
2022-09-28T22:59:26.404Z,2.90
2022-09-28T23:05:17.112Z,2.72
2022-09-28T23:11:07.898Z,2.88
2022-09-28T23:16:57.942Z,2.85
2022-09-28T23:22:53.959Z,2.40
2022-09-28T23:28:43.733Z,2.70
2022-09-28T23:34:33.753Z,2.80
2022-09-28T23:40:22.022Z,2.53
2022-09-28T23:46:09.231Z,2.63
2022-09-28T23:51:56.448Z,2.47
2022-09-28T23:57:46.718Z,2.33
